sensor_id;sensor_type;location;lat;lon;timestamp;P1;durP1;ratioP1;P2;durP2;ratioP2
79631;SDS011;69108;41.120;16.874;2023-12-22T00:01:52;19.17;;;8.82;;
79631;SDS011;69108;41.120;16.874;2023-12-22T00:04:18;15.30;;;8.38;;
79631;SDS011;69108;41.120;16.874;2023-12-22T00:06:45;17.67;;;8.82;;
79631;SDS011;69108;41.120;16.874;2023-12-22T00:09:15;15.80;;;8.55;;
79631;SDS011;69108;41.120;16.874;2023-12-22T00:14:08;19.02;;;8.82;;
79631;SDS011;69108;41.120;16.874;2023-12-22T00:16:36;14.77;;;8.07;;
79631;SDS011;69108;41.120;16.874;2023-12-22T00:19:03;14.55;;;8.77;;
79631;SDS011;69108;41.120;16.874;2023-12-22T00:21:30;29.20;;;14.85;;
79631;SDS011;69108;41.120;16.874;2023-12-22T00:23:57;15.23;;;8.38;;
79631;SDS011;69108;41.120;16.874;2023-12-22T00:26:25;18.63;;;9.20;;
79631;SDS011;69108;41.120;16.874;2023-12-22T00:28:52;17.70;;;8.82;;
79631;SDS011;69108;41.120;16.874;2023-12-22T00:31:19;14.38;;;8.65;;
79631;SDS011;69108;41.120;16.874;2023-12-22T00:33:46;14.60;;;8.85;;
79631;SDS011;69108;41.120;16.874;2023-12-22T00:36:13;18.00;;;8.77;;
79631;SDS011;69108;41.120;16.874;2023-12-22T00:38:39;18.90;;;9.02;;
79631;SDS011;69108;41.120;16.874;2023-12-22T00:41:06;15.73;;;9.07;;
79631;SDS011;69108;41.120;16.874;2023-12-22T00:43:34;18.10;;;9.60;;
79631;SDS011;69108;41.120;16.874;2023-12-22T00:46:01;16.00;;;9.10;;
79631;SDS011;69108;41.120;16.874;2023-12-22T00:48:28;16.90;;;9.23;;
79631;SDS011;69108;41.120;16.874;2023-12-22T00:50:55;17.48;;;9.30;;
79631;SDS011;69108;41.120;16.874;2023-12-22T00:53:21;16.70;;;8.88;;
79631;SDS011;69108;41.120;16.874;2023-12-22T00:55:48;15.80;;;9.02;;
79631;SDS011;69108;41.120;16.874;2023-12-22T00:58:15;16.05;;;8.50;;
79631;SDS011;69108;41.120;16.874;2023-12-22T01:00:43;14.43;;;8.20;;
79631;SDS011;69108;41.120;16.874;2023-12-22T01:03:10;15.85;;;9.10;;
79631;SDS011;69108;41.120;16.874;2023-12-22T01:05:37;15.07;;;8.20;;
79631;SDS011;69108;41.120;16.874;2023-12-22T01:08:04;14.23;;;8.07;;
79631;SDS011;69108;41.120;16.874;2023-12-22T01:10:31;13.13;;;8.15;;
79631;SDS011;69108;41.120;16.874;2023-12-22T01:12:57;17.20;;;8.80;;
79631;SDS011;69108;41.120;16.874;2023-12-22T01:15:24;13.43;;;8.27;;
79631;SDS011;69108;41.120;16.874;2023-12-22T01:17:52;13.02;;;7.63;;
79631;SDS011;69108;41.120;16.874;2023-12-22T01:22:46;14.98;;;8.20;;
79631;SDS011;69108;41.120;16.874;2023-12-22T01:25:12;12.38;;;7.03;;
79631;SDS011;69108;41.120;16.874;2023-12-22T01:27:39;13.23;;;8.02;;
79631;SDS011;69108;41.120;16.874;2023-12-22T01:30:06;14.52;;;6.80;;
79631;SDS011;69108;41.120;16.874;2023-12-22T01:32:34;13.50;;;6.82;;
79631;SDS011;69108;41.120;16.874;2023-12-22T01:35:03;13.85;;;6.75;;
79631;SDS011;69108;41.120;16.874;2023-12-22T01:37:34;14.90;;;7.50;;
79631;SDS011;69108;41.120;16.874;2023-12-22T01:40:02;13.30;;;7.03;;
79631;SDS011;69108;41.120;16.874;2023-12-22T01:42:29;12.55;;;6.68;;
79631;SDS011;69108;41.120;16.874;2023-12-22T01:44:55;11.27;;;6.30;;
79631;SDS011;69108;41.120;16.874;2023-12-22T01:47:22;11.27;;;5.78;;
79631;SDS011;69108;41.120;16.874;2023-12-22T01:49:49;12.00;;;6.13;;
79631;SDS011;69108;41.120;16.874;2023-12-22T01:52:18;13.15;;;5.60;;
79631;SDS011;69108;41.120;16.874;2023-12-22T01:54:45;12.48;;;6.50;;
79631;SDS011;69108;41.120;16.874;2023-12-22T01:57:11;11.80;;;7.03;;
79631;SDS011;69108;41.120;16.874;2023-12-22T01:59:44;10.15;;;5.85;;
79631;SDS011;69108;41.120;16.874;2023-12-22T02:02:11;11.95;;;5.30;;
79631;SDS011;69108;41.120;16.874;2023-12-22T02:04:38;11.30;;;5.22;;
79631;SDS011;69108;41.120;16.874;2023-12-22T02:07:06;13.50;;;6.03;;
79631;SDS011;69108;41.120;16.874;2023-12-22T02:09:37;10.80;;;5.22;;
79631;SDS011;69108;41.120;16.874;2023-12-22T02:14:30;12.50;;;5.30;;
79631;SDS011;69108;41.120;16.874;2023-12-22T02:17:01;11.07;;;5.43;;
79631;SDS011;69108;41.120;16.874;2023-12-22T02:19:39;11.18;;;5.47;;
79631;SDS011;69108;41.120;16.874;2023-12-22T02:22:08;11.07;;;5.93;;
79631;SDS011;69108;41.120;16.874;2023-12-22T02:24:37;13.27;;;6.35;;
79631;SDS011;69108;41.120;16.874;2023-12-22T02:27:05;10.88;;;5.50;;
79631;SDS011;69108;41.120;16.874;2023-12-22T02:29:37;10.57;;;4.90;;
79631;SDS011;69108;41.120;16.874;2023-12-22T02:32:10;10.23;;;5.45;;
79631;SDS011;69108;41.120;16.874;2023-12-22T02:34:43;12.00;;;6.82;;
79631;SDS011;69108;41.120;16.874;2023-12-22T02:37:15;9.80;;;5.43;;
79631;SDS011;69108;41.120;16.874;2023-12-22T02:39:44;13.63;;;5.28;;
79631;SDS011;69108;41.120;16.874;2023-12-22T02:42:11;12.38;;;5.30;;
79631;SDS011;69108;41.120;16.874;2023-12-22T02:44:38;9.75;;;5.50;;
79631;SDS011;69108;41.120;16.874;2023-12-22T02:47:05;13.20;;;5.25;;
79631;SDS011;69108;41.120;16.874;2023-12-22T02:49:32;14.20;;;5.28;;
79631;SDS011;69108;41.120;16.874;2023-12-22T02:51:59;10.43;;;5.00;;
79631;SDS011;69108;41.120;16.874;2023-12-22T02:54:25;14.00;;;6.30;;
79631;SDS011;69108;41.120;16.874;2023-12-22T02:56:56;11.63;;;5.30;;
79631;SDS011;69108;41.120;16.874;2023-12-22T02:59:24;12.57;;;5.38;;
79631;SDS011;69108;41.120;16.874;2023-12-22T03:01:52;14.20;;;5.70;;
79631;SDS011;69108;41.120;16.874;2023-12-22T03:04:19;14.07;;;5.57;;
79631;SDS011;69108;41.120;16.874;2023-12-22T03:06:46;13.77;;;5.82;;
79631;SDS011;69108;41.120;16.874;2023-12-22T03:09:13;15.43;;;6.70;;
79631;SDS011;69108;41.120;16.874;2023-12-22T03:11:40;11.25;;;5.40;;
79631;SDS011;69108;41.120;16.874;2023-12-22T03:14:08;14.35;;;6.20;;
79631;SDS011;69108;41.120;16.874;2023-12-22T03:28:47;11.70;;;5.95;;
79631;SDS011;69108;41.120;16.874;2023-12-22T03:31:15;14.75;;;6.13;;
79631;SDS011;69108;41.120;16.874;2023-12-22T03:36:08;12.60;;;6.13;;
79631;SDS011;69108;41.120;16.874;2023-12-22T03:38:35;13.60;;;5.85;;
79631;SDS011;69108;41.120;16.874;2023-12-22T03:41:02;12.10;;;5.35;;
79631;SDS011;69108;41.120;16.874;2023-12-22T03:43:29;12.35;;;5.38;;
79631;SDS011;69108;41.120;16.874;2023-12-22T03:45:56;10.60;;;5.30;;
79631;SDS011;69108;41.120;16.874;2023-12-22T03:48:23;13.63;;;6.43;;
79631;SDS011;69108;41.120;16.874;2023-12-22T03:55:43;13.80;;;6.63;;
79631;SDS011;69108;41.120;16.874;2023-12-22T03:58:10;14.48;;;6.03;;
79631;SDS011;69108;41.120;16.874;2023-12-22T04:00:36;12.90;;;5.97;;
79631;SDS011;69108;41.120;16.874;2023-12-22T04:03:03;10.60;;;5.55;;
79631;SDS011;69108;41.120;16.874;2023-12-22T04:05:31;10.98;;;5.40;;
79631;SDS011;69108;41.120;16.874;2023-12-22T04:12:51;14.32;;;6.55;;
79631;SDS011;69108;41.120;16.874;2023-12-22T04:15:18;10.95;;;5.80;;
79631;SDS011;69108;41.120;16.874;2023-12-22T04:17:45;17.05;;;6.00;;
79631;SDS011;69108;41.120;16.874;2023-12-22T04:20:11;13.85;;;6.07;;
79631;SDS011;69108;41.120;16.874;2023-12-22T04:22:40;13.05;;;5.68;;
79631;SDS011;69108;41.120;16.874;2023-12-22T04:25:07;12.45;;;6.00;;
79631;SDS011;69108;41.120;16.874;2023-12-22T04:27:34;13.82;;;5.78;;
79631;SDS011;69108;41.120;16.874;2023-12-22T04:30:00;14.13;;;5.72;;
79631;SDS011;69108;41.120;16.874;2023-12-22T04:32:27;13.98;;;5.90;;
79631;SDS011;69108;41.120;16.874;2023-12-22T04:34:54;18.48;;;6.25;;
79631;SDS011;69108;41.120;16.874;2023-12-22T04:37:21;12.82;;;6.40;;
79631;SDS011;69108;41.120;16.874;2023-12-22T04:39:50;16.73;;;7.22;;
79631;SDS011;69108;41.120;16.874;2023-12-22T04:42:17;21.77;;;5.72;;
79631;SDS011;69108;41.120;16.874;2023-12-22T04:44:44;13.57;;;5.43;;
79631;SDS011;69108;41.120;16.874;2023-12-22T04:47:11;20.55;;;7.13;;
79631;SDS011;69108;41.120;16.874;2023-12-22T04:49:38;14.35;;;5.78;;
79631;SDS011;69108;41.120;16.874;2023-12-22T04:52:05;14.70;;;5.45;;
79631;SDS011;69108;41.120;16.874;2023-12-22T04:54:31;15.50;;;5.53;;
79631;SDS011;69108;41.120;16.874;2023-12-22T04:57:00;25.10;;;6.60;;
79631;SDS011;69108;41.120;16.874;2023-12-22T05:06:47;21.02;;;6.07;;
79631;SDS011;69108;41.120;16.874;2023-12-22T05:09:13;19.40;;;6.15;;
79631;SDS011;69108;41.120;16.874;2023-12-22T05:11:40;12.38;;;4.40;;
79631;SDS011;69108;41.120;16.874;2023-12-22T05:14:08;11.10;;;4.97;;
79631;SDS011;69108;41.120;16.874;2023-12-22T05:16:36;13.32;;;5.43;;
79631;SDS011;69108;41.120;16.874;2023-12-22T05:19:03;12.90;;;5.18;;
79631;SDS011;69108;41.120;16.874;2023-12-22T05:21:30;13.48;;;5.20;;
79631;SDS011;69108;41.120;16.874;2023-12-22T05:23:56;12.90;;;5.82;;
79631;SDS011;69108;41.120;16.874;2023-12-22T05:26:24;14.07;;;4.90;;
79631;SDS011;69108;41.120;16.874;2023-12-22T05:28:55;12.45;;;4.90;;
79631;SDS011;69108;41.120;16.874;2023-12-22T05:31:23;9.15;;;4.78;;
79631;SDS011;69108;41.120;16.874;2023-12-22T05:38:43;14.35;;;4.28;;
79631;SDS011;69108;41.120;16.874;2023-12-22T05:41:11;7.93;;;3.80;;
79631;SDS011;69108;41.120;16.874;2023-12-22T05:43:37;15.65;;;4.50;;
79631;SDS011;69108;41.120;16.874;2023-12-22T05:46:04;17.27;;;4.72;;
79631;SDS011;69108;41.120;16.874;2023-12-22T05:48:32;16.13;;;5.00;;
79631;SDS011;69108;41.120;16.874;2023-12-22T05:51:00;15.18;;;4.57;;
79631;SDS011;69108;41.120;16.874;2023-12-22T05:53:28;11.32;;;4.70;;
79631;SDS011;69108;41.120;16.874;2023-12-22T05:55:55;18.50;;;4.97;;
79631;SDS011;69108;41.120;16.874;2023-12-22T05:58:21;14.52;;;5.47;;
79631;SDS011;69108;41.120;16.874;2023-12-22T06:00:48;13.23;;;4.90;;
79631;SDS011;69108;41.120;16.874;2023-12-22T06:03:15;17.67;;;4.95;;
79631;SDS011;69108;41.120;16.874;2023-12-22T06:05:43;22.70;;;5.53;;
79631;SDS011;69108;41.120;16.874;2023-12-22T06:08:10;14.85;;;4.70;;
79631;SDS011;69108;41.120;16.874;2023-12-22T06:10:37;13.40;;;4.43;;
79631;SDS011;69108;41.120;16.874;2023-12-22T06:13:04;11.18;;;4.72;;
79631;SDS011;69108;41.120;16.874;2023-12-22T06:15:31;9.63;;;4.30;;
79631;SDS011;69108;41.120;16.874;2023-12-22T06:17:59;15.07;;;5.07;;
79631;SDS011;69108;41.120;16.874;2023-12-22T06:20:26;14.52;;;6.22;;
79631;SDS011;69108;41.120;16.874;2023-12-22T06:22:54;12.13;;;5.05;;
79631;SDS011;69108;41.120;16.874;2023-12-22T06:32:40;17.25;;;6.13;;
79631;SDS011;69108;41.120;16.874;2023-12-22T06:35:07;18.80;;;5.03;;
79631;SDS011;69108;41.120;16.874;2023-12-22T06:37:36;21.77;;;6.70;;
79631;SDS011;69108;41.120;16.874;2023-12-22T06:40:05;17.48;;;5.93;;
79631;SDS011;69108;41.120;16.874;2023-12-22T06:42:32;15.00;;;5.88;;
79631;SDS011;69108;41.120;16.874;2023-12-22T06:44:59;12.10;;;5.68;;
79631;SDS011;69108;41.120;16.874;2023-12-22T06:47:26;11.20;;;5.45;;
79631;SDS011;69108;41.120;16.874;2023-12-22T06:49:53;16.35;;;5.50;;
79631;SDS011;69108;41.120;16.874;2023-12-22T06:52:19;18.15;;;5.78;;
79631;SDS011;69108;41.120;16.874;2023-12-22T06:54:46;18.65;;;5.60;;
79631;SDS011;69108;41.120;16.874;2023-12-22T06:57:14;14.90;;;5.78;;
79631;SDS011;69108;41.120;16.874;2023-12-22T06:59:42;19.33;;;5.60;;
79631;SDS011;69108;41.120;16.874;2023-12-22T07:02:09;18.15;;;6.65;;
79631;SDS011;69108;41.120;16.874;2023-12-22T07:07:35;23.92;;;7.25;;
79631;SDS011;69108;41.120;16.874;2023-12-22T07:10:02;21.58;;;6.07;;
79631;SDS011;69108;41.120;16.874;2023-12-22T07:12:30;17.75;;;6.80;;
79631;SDS011;69108;41.120;16.874;2023-12-22T07:17:23;19.33;;;8.25;;
79631;SDS011;69108;41.120;16.874;2023-12-22T07:19:50;20.08;;;6.82;;
79631;SDS011;69108;41.120;16.874;2023-12-22T07:22:17;24.40;;;7.43;;
79631;SDS011;69108;41.120;16.874;2023-12-22T07:24:44;21.63;;;6.45;;
79631;SDS011;69108;41.120;16.874;2023-12-22T07:27:11;21.83;;;7.40;;
79631;SDS011;69108;41.120;16.874;2023-12-22T07:29:39;25.52;;;8.57;;
79631;SDS011;69108;41.120;16.874;2023-12-22T07:32:06;17.92;;;6.82;;
79631;SDS011;69108;41.120;16.874;2023-12-22T07:34:33;25.83;;;7.18;;
79631;SDS011;69108;41.120;16.874;2023-12-22T07:36:59;14.93;;;6.53;;
79631;SDS011;69108;41.120;16.874;2023-12-22T07:39:27;22.75;;;7.88;;
79631;SDS011;69108;41.120;16.874;2023-12-22T07:41:53;16.70;;;5.68;;
79631;SDS011;69108;41.120;16.874;2023-12-22T07:44:20;13.10;;;5.90;;
79631;SDS011;69108;41.120;16.874;2023-12-22T07:46:56;15.68;;;5.78;;
79631;SDS011;69108;41.120;16.874;2023-12-22T07:49:24;23.80;;;7.40;;
79631;SDS011;69108;41.120;16.874;2023-12-22T07:51:51;16.98;;;5.63;;
79631;SDS011;69108;41.120;16.874;2023-12-22T07:54:18;13.93;;;5.40;;
79631;SDS011;69108;41.120;16.874;2023-12-22T07:56:45;14.25;;;6.05;;
79631;SDS011;69108;41.120;16.874;2023-12-22T07:59:12;20.98;;;6.07;;
79631;SDS011;69108;41.120;16.874;2023-12-22T08:01:39;14.68;;;6.05;;
79631;SDS011;69108;41.120;16.874;2023-12-22T08:04:08;18.88;;;5.32;;
79631;SDS011;69108;41.120;16.874;2023-12-22T08:06:35;12.70;;;5.28;;
79631;SDS011;69108;41.120;16.874;2023-12-22T08:09:02;19.10;;;6.00;;
79631;SDS011;69108;41.120;16.874;2023-12-22T08:11:28;16.27;;;5.78;;
79631;SDS011;69108;41.120;16.874;2023-12-22T08:13:55;17.85;;;6.93;;
79631;SDS011;69108;41.120;16.874;2023-12-22T08:16:22;18.20;;;5.85;;
79631;SDS011;69108;41.120;16.874;2023-12-22T08:18:49;19.88;;;9.65;;
79631;SDS011;69108;41.120;16.874;2023-12-22T08:21:17;23.08;;;9.45;;
79631;SDS011;69108;41.120;16.874;2023-12-22T08:26:10;16.15;;;6.35;;
79631;SDS011;69108;41.120;16.874;2023-12-22T08:28:39;13.75;;;6.28;;
79631;SDS011;69108;41.120;16.874;2023-12-22T08:31:06;20.70;;;7.25;;
79631;SDS011;69108;41.120;16.874;2023-12-22T08:33:33;15.15;;;5.25;;
79631;SDS011;69108;41.120;16.874;2023-12-22T08:35:59;27.88;;;8.23;;
79631;SDS011;69108;41.120;16.874;2023-12-22T08:38:28;21.33;;;7.95;;
79631;SDS011;69108;41.120;16.874;2023-12-22T08:40:54;19.00;;;6.55;;
79631;SDS011;69108;41.120;16.874;2023-12-22T08:43:21;19.48;;;7.00;;
79631;SDS011;69108;41.120;16.874;2023-12-22T08:45:48;22.90;;;7.43;;
79631;SDS011;69108;41.120;16.874;2023-12-22T08:48:15;14.10;;;5.82;;
79631;SDS011;69108;41.120;16.874;2023-12-22T08:50:41;16.45;;;7.20;;
79631;SDS011;69108;41.120;16.874;2023-12-22T08:53:08;19.20;;;7.25;;
79631;SDS011;69108;41.120;16.874;2023-12-22T08:55:36;16.88;;;7.35;;
79631;SDS011;69108;41.120;16.874;2023-12-22T08:58:03;27.00;;;8.90;;
79631;SDS011;69108;41.120;16.874;2023-12-22T09:00:30;16.35;;;6.63;;
79631;SDS011;69108;41.120;16.874;2023-12-22T09:02:56;19.02;;;6.35;;
79631;SDS011;69108;41.120;16.874;2023-12-22T09:05:23;18.25;;;6.90;;
79631;SDS011;69108;41.120;16.874;2023-12-22T09:07:50;17.55;;;6.60;;
79631;SDS011;69108;41.120;16.874;2023-12-22T09:10:17;27.70;;;7.20;;
79631;SDS011;69108;41.120;16.874;2023-12-22T09:12:45;22.50;;;5.88;;
79631;SDS011;69108;41.120;16.874;2023-12-22T09:15:12;14.60;;;5.78;;
79631;SDS011;69108;41.120;16.874;2023-12-22T09:17:41;12.38;;;4.40;;
79631;SDS011;69108;41.120;16.874;2023-12-22T09:20:08;17.02;;;5.00;;
79631;SDS011;69108;41.120;16.874;2023-12-22T09:22:35;12.65;;;3.90;;
79631;SDS011;69108;41.120;16.874;2023-12-22T09:25:02;13.68;;;5.45;;
79631;SDS011;69108;41.120;16.874;2023-12-22T09:27:29;17.35;;;4.43;;
79631;SDS011;69108;41.120;16.874;2023-12-22T09:29:58;13.07;;;4.13;;
79631;SDS011;69108;41.120;16.874;2023-12-22T09:32:24;8.07;;;3.17;;
79631;SDS011;69108;41.120;16.874;2023-12-22T09:34:51;13.27;;;3.42;;
79631;SDS011;69108;41.120;16.874;2023-12-22T09:37:20;19.23;;;4.93;;
79631;SDS011;69108;41.120;16.874;2023-12-22T09:39:46;16.50;;;4.10;;
79631;SDS011;69108;41.120;16.874;2023-12-22T09:42:13;12.60;;;3.80;;
79631;SDS011;69108;41.120;16.874;2023-12-22T09:44:41;12.15;;;3.05;;
79631;SDS011;69108;41.120;16.874;2023-12-22T09:49:38;11.27;;;2.55;;
79631;SDS011;69108;41.120;16.874;2023-12-22T09:52:07;10.70;;;2.70;;
79631;SDS011;69108;41.120;16.874;2023-12-22T09:54:34;8.50;;;2.45;;
79631;SDS011;69108;41.120;16.874;2023-12-22T09:57:03;11.93;;;3.63;;
79631;SDS011;69108;41.120;16.874;2023-12-22T09:59:31;18.77;;;3.92;;
79631;SDS011;69108;41.120;16.874;2023-12-22T10:01:59;10.98;;;3.17;;
79631;SDS011;69108;41.120;16.874;2023-12-22T10:04:30;7.70;;;2.22;;
79631;SDS011;69108;41.120;16.874;2023-12-22T10:06:58;8.82;;;3.13;;
79631;SDS011;69108;41.120;16.874;2023-12-22T10:09:26;11.05;;;2.40;;
79631;SDS011;69108;41.120;16.874;2023-12-22T10:11:53;9.40;;;2.15;;
79631;SDS011;69108;41.120;16.874;2023-12-22T10:14:21;7.60;;;2.25;;
79631;SDS011;69108;41.120;16.874;2023-12-22T10:16:48;11.93;;;2.78;;
79631;SDS011;69108;41.120;16.874;2023-12-22T10:19:16;11.68;;;2.75;;
79631;SDS011;69108;41.120;16.874;2023-12-22T10:21:44;14.80;;;6.45;;
79631;SDS011;69108;41.120;16.874;2023-12-22T10:27:03;19.60;;;3.92;;
79631;SDS011;69108;41.120;16.874;2023-12-22T10:29:30;12.77;;;3.10;;
79631;SDS011;69108;41.120;16.874;2023-12-22T10:31:57;9.90;;;3.17;;
79631;SDS011;69108;41.120;16.874;2023-12-22T10:34:24;11.35;;;3.33;;
79631;SDS011;69108;41.120;16.874;2023-12-22T10:36:52;12.90;;;2.67;;
79631;SDS011;69108;41.120;16.874;2023-12-22T10:39:19;10.40;;;2.70;;
79631;SDS011;69108;41.120;16.874;2023-12-22T10:41:47;12.32;;;3.47;;
79631;SDS011;69108;41.120;16.874;2023-12-22T10:44:15;11.18;;;2.60;;
79631;SDS011;69108;41.120;16.874;2023-12-22T10:46:42;10.50;;;3.13;;
79631;SDS011;69108;41.120;16.874;2023-12-22T10:49:09;12.88;;;2.45;;
79631;SDS011;69108;41.120;16.874;2023-12-22T10:51:36;10.70;;;2.28;;
79631;SDS011;69108;41.120;16.874;2023-12-22T10:54:05;12.88;;;2.47;;
79631;SDS011;69108;41.120;16.874;2023-12-22T10:56:32;8.70;;;2.47;;
79631;SDS011;69108;41.120;16.874;2023-12-22T10:58:59;8.13;;;2.67;;
79631;SDS011;69108;41.120;16.874;2023-12-22T11:01:27;10.02;;;2.75;;
79631;SDS011;69108;41.120;16.874;2023-12-22T11:03:57;10.15;;;2.10;;
79631;SDS011;69108;41.120;16.874;2023-12-22T11:06:27;12.40;;;2.60;;
79631;SDS011;69108;41.120;16.874;2023-12-22T11:08:56;12.45;;;2.67;;
79631;SDS011;69108;41.120;16.874;2023-12-22T11:13:57;11.07;;;2.67;;
79631;SDS011;69108;41.120;16.874;2023-12-22T11:16:24;10.13;;;3.60;;
79631;SDS011;69108;41.120;16.874;2023-12-22T11:18:51;13.45;;;3.13;;
79631;SDS011;69108;41.120;16.874;2023-12-22T11:21:20;13.70;;;3.17;;
79631;SDS011;69108;41.120;16.874;2023-12-22T11:23:49;12.10;;;3.42;;
79631;SDS011;69108;41.120;16.874;2023-12-22T11:26:16;10.82;;;2.83;;
79631;SDS011;69108;41.120;16.874;2023-12-22T11:28:45;10.23;;;2.50;;
79631;SDS011;69108;41.120;16.874;2023-12-22T11:31:13;15.23;;;6.88;;
79631;SDS011;69108;41.120;16.874;2023-12-22T11:33:43;18.85;;;3.03;;
79631;SDS011;69108;41.120;16.874;2023-12-22T11:36:11;10.02;;;2.70;;
79631;SDS011;69108;41.120;16.874;2023-12-22T11:38:39;11.00;;;2.53;;
79631;SDS011;69108;41.120;16.874;2023-12-22T11:41:07;12.13;;;2.63;;
79631;SDS011;69108;41.120;16.874;2023-12-22T11:43:37;10.32;;;2.45;;
79631;SDS011;69108;41.120;16.874;2023-12-22T11:46:07;9.52;;;2.92;;
79631;SDS011;69108;41.120;16.874;2023-12-22T11:48:35;13.43;;;3.05;;
79631;SDS011;69108;41.120;16.874;2023-12-22T11:51:03;7.63;;;2.45;;
79631;SDS011;69108;41.120;16.874;2023-12-22T11:53:39;14.65;;;2.40;;
79631;SDS011;69108;41.120;16.874;2023-12-22T11:56:06;10.02;;;2.90;;
79631;SDS011;69108;41.120;16.874;2023-12-22T11:58:34;8.50;;;2.38;;
79631;SDS011;69108;41.120;16.874;2023-12-22T12:01:03;9.98;;;3.08;;
79631;SDS011;69108;41.120;16.874;2023-12-22T12:03:36;8.98;;;2.50;;
79631;SDS011;69108;41.120;16.874;2023-12-22T12:06:14;17.30;;;3.65;;
79631;SDS011;69108;41.120;16.874;2023-12-22T12:08:42;11.43;;;3.83;;
79631;SDS011;69108;41.120;16.874;2023-12-22T12:11:09;10.82;;;2.75;;
79631;SDS011;69108;41.120;16.874;2023-12-22T12:13:39;9.75;;;2.20;;
79631;SDS011;69108;41.120;16.874;2023-12-22T12:16:10;9.00;;;2.63;;
79631;SDS011;69108;41.120;16.874;2023-12-22T12:18:37;12.50;;;2.72;;
79631;SDS011;69108;41.120;16.874;2023-12-22T12:21:06;10.48;;;2.60;;
79631;SDS011;69108;41.120;16.874;2023-12-22T12:26:00;7.18;;;1.95;;
79631;SDS011;69108;41.120;16.874;2023-12-22T12:28:28;12.70;;;2.63;;
79631;SDS011;69108;41.120;16.874;2023-12-22T12:30:59;11.27;;;2.97;;
79631;SDS011;69108;41.120;16.874;2023-12-22T12:33:28;6.10;;;1.80;;
79631;SDS011;69108;41.120;16.874;2023-12-22T12:35:56;12.73;;;4.70;;
79631;SDS011;69108;41.120;16.874;2023-12-22T12:38:28;7.82;;;2.17;;
79631;SDS011;69108;41.120;16.874;2023-12-22T12:41:04;7.90;;;1.80;;
79631;SDS011;69108;41.120;16.874;2023-12-22T12:43:31;7.57;;;2.60;;
79631;SDS011;69108;41.120;16.874;2023-12-22T12:46:02;7.80;;;2.53;;
79631;SDS011;69108;41.120;16.874;2023-12-22T12:48:31;9.25;;;2.10;;
79631;SDS011;69108;41.120;16.874;2023-12-22T12:51:01;8.68;;;2.33;;
79631;SDS011;69108;41.120;16.874;2023-12-22T12:53:29;14.13;;;3.42;;
79631;SDS011;69108;41.120;16.874;2023-12-22T12:55:57;8.88;;;3.15;;
79631;SDS011;69108;41.120;16.874;2023-12-22T12:58:26;11.27;;;2.60;;
79631;SDS011;69108;41.120;16.874;2023-12-22T13:00:54;10.55;;;2.03;;
79631;SDS011;69108;41.120;16.874;2023-12-22T13:03:31;9.57;;;2.30;;
79631;SDS011;69108;41.120;16.874;2023-12-22T13:06:07;8.02;;;2.03;;
79631;SDS011;69108;41.120;16.874;2023-12-22T13:08:35;12.75;;;2.03;;
79631;SDS011;69108;41.120;16.874;2023-12-22T13:13:29;12.25;;;2.05;;
79631;SDS011;69108;41.120;16.874;2023-12-22T13:15:56;6.55;;;1.95;;
79631;SDS011;69108;41.120;16.874;2023-12-22T13:18:23;7.47;;;1.77;;
79631;SDS011;69108;41.120;16.874;2023-12-22T13:20:51;8.70;;;2.60;;
79631;SDS011;69108;41.120;16.874;2023-12-22T13:23:18;8.57;;;2.35;;
79631;SDS011;69108;41.120;16.874;2023-12-22T13:25:45;7.90;;;2.05;;
79631;SDS011;69108;41.120;16.874;2023-12-22T13:28:12;8.55;;;2.05;;
79631;SDS011;69108;41.120;16.874;2023-12-22T13:30:39;6.85;;;1.80;;
79631;SDS011;69108;41.120;16.874;2023-12-22T13:33:06;5.20;;;1.70;;
79631;SDS011;69108;41.120;16.874;2023-12-22T13:35:33;8.23;;;2.30;;
79631;SDS011;69108;41.120;16.874;2023-12-22T13:38:03;5.03;;;1.55;;
79631;SDS011;69108;41.120;16.874;2023-12-22T13:40:32;4.40;;;1.63;;
79631;SDS011;69108;41.120;16.874;2023-12-22T13:42:59;6.18;;;1.10;;
79631;SDS011;69108;41.120;16.874;2023-12-22T13:47:53;7.30;;;2.33;;
79631;SDS011;69108;41.120;16.874;2023-12-22T13:50:20;4.40;;;1.60;;
79631;SDS011;69108;41.120;16.874;2023-12-22T13:52:48;7.88;;;1.90;;
79631;SDS011;69108;41.120;16.874;2023-12-22T13:55:18;8.73;;;2.17;;
79631;SDS011;69108;41.120;16.874;2023-12-22T13:57:47;8.80;;;2.80;;
79631;SDS011;69108;41.120;16.874;2023-12-22T14:00:24;10.70;;;1.92;;
79631;SDS011;69108;41.120;16.874;2023-12-22T14:02:51;12.23;;;2.80;;
79631;SDS011;69108;41.120;16.874;2023-12-22T14:05:18;6.10;;;2.42;;
79631;SDS011;69108;41.120;16.874;2023-12-22T14:07:45;8.27;;;2.00;;
79631;SDS011;69108;41.120;16.874;2023-12-22T14:10:12;12.90;;;3.15;;
79631;SDS011;69108;41.120;16.874;2023-12-22T14:12:41;8.95;;;2.17;;
79631;SDS011;69108;41.120;16.874;2023-12-22T14:15:09;7.20;;;1.73;;
79631;SDS011;69108;41.120;16.874;2023-12-22T14:17:36;11.43;;;1.90;;
79631;SDS011;69108;41.120;16.874;2023-12-22T14:20:03;7.25;;;1.58;;
79631;SDS011;69108;41.120;16.874;2023-12-22T14:22:32;5.65;;;1.45;;
79631;SDS011;69108;41.120;16.874;2023-12-22T14:25:00;12.45;;;2.22;;
79631;SDS011;69108;41.120;16.874;2023-12-22T14:27:27;8.60;;;2.13;;
79631;SDS011;69108;41.120;16.874;2023-12-22T14:29:55;8.73;;;2.38;;
79631;SDS011;69108;41.120;16.874;2023-12-22T14:32:22;9.65;;;2.50;;
79631;SDS011;69108;41.120;16.874;2023-12-22T14:34:49;10.52;;;2.22;;
79631;SDS011;69108;41.120;16.874;2023-12-22T14:37:16;7.72;;;1.85;;
79631;SDS011;69108;41.120;16.874;2023-12-22T14:39:43;8.15;;;1.98;;
79631;SDS011;69108;41.120;16.874;2023-12-22T14:44:37;4.70;;;1.50;;
79631;SDS011;69108;41.120;16.874;2023-12-22T14:47:05;6.30;;;1.17;;
79631;SDS011;69108;41.120;16.874;2023-12-22T14:49:32;6.05;;;1.85;;
79631;SDS011;69108;41.120;16.874;2023-12-22T14:51:59;9.32;;;2.33;;
79631;SDS011;69108;41.120;16.874;2023-12-22T14:54:26;6.05;;;1.83;;
79631;SDS011;69108;41.120;16.874;2023-12-22T14:56:53;10.70;;;2.30;;
79631;SDS011;69108;41.120;16.874;2023-12-22T14:59:19;7.18;;;1.55;;
79631;SDS011;69108;41.120;16.874;2023-12-22T15:01:45;6.88;;;1.85;;
79631;SDS011;69108;41.120;16.874;2023-12-22T15:04:14;4.93;;;1.67;;
79631;SDS011;69108;41.120;16.874;2023-12-22T15:06:41;7.78;;;1.80;;
79631;SDS011;69108;41.120;16.874;2023-12-22T15:11:40;10.82;;;2.10;;
79631;SDS011;69108;41.120;16.874;2023-12-22T15:14:07;4.75;;;1.33;;
79631;SDS011;69108;41.120;16.874;2023-12-22T15:16:38;5.70;;;1.65;;
79631;SDS011;69108;41.120;16.874;2023-12-22T15:19:05;12.55;;;2.80;;
79631;SDS011;69108;41.120;16.874;2023-12-22T15:21:33;8.32;;;2.60;;
79631;SDS011;69108;41.120;16.874;2023-12-22T15:24:00;7.15;;;1.85;;
79631;SDS011;69108;41.120;16.874;2023-12-22T15:26:28;8.10;;;1.88;;
79631;SDS011;69108;41.120;16.874;2023-12-22T15:28:55;8.50;;;2.67;;
79631;SDS011;69108;41.120;16.874;2023-12-22T15:31:22;11.85;;;3.60;;
79631;SDS011;69108;41.120;16.874;2023-12-22T15:33:49;10.27;;;2.63;;
79631;SDS011;69108;41.120;16.874;2023-12-22T15:36:16;7.60;;;1.98;;
79631;SDS011;69108;41.120;16.874;2023-12-22T15:38:45;10.85;;;3.42;;
79631;SDS011;69108;41.120;16.874;2023-12-22T15:41:12;7.45;;;3.08;;
79631;SDS011;69108;41.120;16.874;2023-12-22T15:43:39;8.50;;;1.95;;
79631;SDS011;69108;41.120;16.874;2023-12-22T15:46:06;10.98;;;1.95;;